createdAt,value
2018-06-15T00:02:37.704Z,77.70
2018-06-15T00:05:06.213Z,77.80
2018-06-15T00:07:34.768Z,77.90
2018-06-15T00:10:03.257Z,77.90
2018-06-15T00:12:31.579Z,77.50
2018-06-15T00:15:00.025Z,78.00
2018-06-15T00:17:28.407Z,77.60
2018-06-15T00:19:56.928Z,77.70
2018-06-15T00:22:25.308Z,77.40
2018-06-15T00:24:53.784Z,77.40
2018-06-15T00:27:22.192Z,78.10
2018-06-15T00:29:50.608Z,78.30
2018-06-15T00:32:19.109Z,77.90
2018-06-15T00:34:47.617Z,77.80
2018-06-15T00:37:17.118Z,77.60
2018-06-15T00:39:45.497Z,77.10
2018-06-15T00:42:13.988Z,77.00
2018-06-15T00:44:42.409Z,77.30
2018-06-15T00:47:10.790Z,77.70
2018-06-15T00:49:39.256Z,76.80
2018-06-15T00:52:07.650Z,77.00
2018-06-15T00:54:36.204Z,76.90
2018-06-15T00:57:15.917Z,77.20
2018-06-15T00:59:44.276Z,77.10
2018-06-15T01:04:40.785Z,77.40
2018-06-15T01:07:09.260Z,77.50
2018-06-15T01:09:37.868Z,77.30
2018-06-15T01:12:06.481Z,77.10
2018-06-15T01:14:35.188Z,77.30
2018-06-15T01:17:03.707Z,77.30
2018-06-15T01:19:32.200Z,77.10
2018-06-15T01:22:00.746Z,76.80
2018-06-15T01:24:29.324Z,76.50
2018-06-15T01:26:57.828Z,76.40
2018-06-15T01:29:26.248Z,76.60
2018-06-15T01:31:54.729Z,76.20
2018-06-15T01:34:24.224Z,76.10
2018-06-15T01:36:52.724Z,76.20
2018-06-15T01:39:21.292Z,75.90
2018-06-15T01:41:49.737Z,75.90
2018-06-15T01:44:18.116Z,75.60
2018-06-15T01:46:46.552Z,75.20
2018-06-15T01:49:14.918Z,75.60
2018-06-15T01:51:43.337Z,75.80
2018-06-15T01:54:11.751Z,75.90
2018-06-15T01:56:40.289Z,75.70
2018-06-15T01:59:08.792Z,75.50
2018-06-15T02:01:37.304Z,75.40
2018-06-15T02:04:05.721Z,75.40
2018-06-15T02:06:34.227Z,76.10
2018-06-15T02:09:03.120Z,76.40
2018-06-15T02:11:31.528Z,76.40
2018-06-15T02:13:59.980Z,75.90
2018-06-15T02:16:28.438Z,76.30
2018-06-15T02:18:56.919Z,76.40
2018-06-15T02:21:25.325Z,77.00
2018-06-15T02:23:53.761Z,76.90
2018-06-15T02:26:22.225Z,76.70
2018-06-15T02:28:50.660Z,76.60
2018-06-15T02:31:19.171Z,76.50
2018-06-15T02:33:48.475Z,76.50
2018-06-15T02:36:16.781Z,76.30
2018-06-15T02:38:45.051Z,76.40
2018-06-15T02:41:13.304Z,76.30
2018-06-15T02:43:41.687Z,76.40
2018-06-15T02:46:10.083Z,76.30
2018-06-15T02:48:38.525Z,76.20
2018-06-15T02:51:07.059Z,76.30
2018-06-15T02:53:35.517Z,76.00
2018-06-15T02:56:04.043Z,76.00
2018-06-15T02:58:32.417Z,76.00
2018-06-15T03:01:00.837Z,75.70
2018-06-15T03:03:29.283Z,75.70
2018-06-15T03:05:58.938Z,75.90
2018-06-15T03:08:27.383Z,75.70
2018-06-15T03:10:55.800Z,75.60
2018-06-15T03:13:24.296Z,75.80
2018-06-15T03:15:52.873Z,75.70
2018-06-15T03:18:21.305Z,75.80
2018-06-15T03:20:49.860Z,75.70
2018-06-15T03:23:18.384Z,75.60
2018-06-15T03:25:47.332Z,75.80
2018-06-15T03:28:15.916Z,75.80
2018-06-15T03:30:44.433Z,75.90
2018-06-15T03:33:12.905Z,75.90
2018-06-15T03:35:41.328Z,75.80
2018-06-15T03:38:10.880Z,75.60
2018-06-15T03:40:39.366Z,75.60
2018-06-15T03:43:07.949Z,75.50
2018-06-15T03:45:36.368Z,75.50
2018-06-15T03:48:04.797Z,75.40
2018-06-15T03:50:33.212Z,75.50
2018-06-15T03:53:01.702Z,75.50
2018-06-15T03:55:30.197Z,77.30
2018-06-15T03:57:58.629Z,76.00
2018-06-15T04:00:27.361Z,75.70
2018-06-15T04:02:55.908Z,75.70
2018-06-15T04:05:24.352Z,76.70
2018-06-15T04:07:52.864Z,75.80
2018-06-15T04:12:49.280Z,75.60
2018-06-15T04:15:17.704Z,76.00
2018-06-15T04:17:50.421Z,76.70
2018-06-15T04:20:19.112Z,75.80
2018-06-15T04:22:47.553Z,75.90
2018-06-15T04:25:15.989Z,75.90
2018-06-15T04:27:44.432Z,75.50
2018-06-15T04:30:12.828Z,75.20
2018-06-15T04:32:41.365Z,75.20
2018-06-15T04:35:09.842Z,75.30
2018-06-15T04:37:38.406Z,75.10
2018-06-15T04:40:06.848Z,75.30
2018-06-15T04:42:35.366Z,75.30
2018-06-15T04:45:03.976Z,75.90
2018-06-15T04:47:32.667Z,78.10
2018-06-15T04:50:01.121Z,77.20
2018-06-15T04:55:08.828Z,76.20
2018-06-15T04:57:37.357Z,75.70
2018-06-15T05:00:06.141Z,75.20
2018-06-15T05:02:34.601Z,75.50
2018-06-15T05:05:03.097Z,74.40
2018-06-15T05:07:31.525Z,75.90
2018-06-15T05:10:00.076Z,74.50
2018-06-15T05:12:29.045Z,74.40
2018-06-15T05:14:59.612Z,73.70
2018-06-15T05:17:28.129Z,75.50
2018-06-15T05:19:57.696Z,74.60
2018-06-15T05:22:28.204Z,74.30
2018-06-15T05:24:56.909Z,72.70
2018-06-15T05:27:25.404Z,73.10
2018-06-15T05:29:53.827Z,73.30
2018-06-15T05:32:22.257Z,72.90
2018-06-15T05:34:50.717Z,73.00
2018-06-15T05:37:19.278Z,72.50
2018-06-15T05:39:47.835Z,72.20
2018-06-15T05:42:16.228Z,71.00
2018-06-15T05:44:44.673Z,70.40
2018-06-15T05:47:13.264Z,70.80
2018-06-15T05:49:41.733Z,70.30
2018-06-15T05:52:10.172Z,70.10
2018-06-15T05:54:38.695Z,69.90
2018-06-15T05:57:08.173Z,70.30
2018-06-15T05:59:36.769Z,69.80
2018-06-15T06:02:05.296Z,71.50
2018-06-15T06:04:33.773Z,70.70
2018-06-15T06:07:02.228Z,70.30
2018-06-15T06:09:30.814Z,69.90
2018-06-15T06:11:59.364Z,69.70
2018-06-15T06:14:27.788Z,70.10
2018-06-15T06:16:56.308Z,70.70
2018-06-15T06:19:24.700Z,69.80
2018-06-15T06:21:53.336Z,71.10
2018-06-15T06:24:21.884Z,73.00
2018-06-15T06:26:50.366Z,68.30
2018-06-15T06:29:18.736Z,68.50
2018-06-15T06:31:47.161Z,68.60
2018-06-15T06:34:15.591Z,68.70
2018-06-15T06:36:44.268Z,68.60
2018-06-15T06:39:13.288Z,70.60
2018-06-15T06:41:41.752Z,68.50
2018-06-15T06:44:11.124Z,68.30
2018-06-15T06:46:43.021Z,68.70
2018-06-15T06:49:12.492Z,71.10
2018-06-15T06:51:40.936Z,72.20
2018-06-15T06:54:09.396Z,70.90
2018-06-15T06:56:37.884Z,68.80
2018-06-15T06:59:06.334Z,66.80
2018-06-15T07:01:34.884Z,67.00
2018-06-15T07:04:03.340Z,66.90
2018-06-15T07:06:32.809Z,66.70
2018-06-15T07:09:01.276Z,67.40
2018-06-15T07:11:29.769Z,68.90
2018-06-15T07:13:58.310Z,65.60
2018-06-15T07:16:26.953Z,65.50
2018-06-15T07:18:55.409Z,68.30
2018-06-15T07:21:23.786Z,65.00
2018-06-15T07:23:52.254Z,64.50
2018-06-15T07:26:20.662Z,64.80
2018-06-15T07:28:50.228Z,68.40
2018-06-15T07:31:18.677Z,64.00
2018-06-15T07:33:47.068Z,66.50
2018-06-15T07:36:15.728Z,64.40
2018-06-15T07:38:45.321Z,68.20
2018-06-15T07:41:13.855Z,65.10
2018-06-15T07:43:42.460Z,63.60
2018-06-15T07:46:10.919Z,63.10
2018-06-15T07:48:39.277Z,62.10
2018-06-15T07:51:07.813Z,58.60
2018-06-15T07:53:36.161Z,62.40
2018-06-15T07:56:08.389Z,62.10
2018-06-15T07:58:37.296Z,58.40
2018-06-15T08:01:09.340Z,59.10
2018-06-15T08:03:37.761Z,57.30
2018-06-15T08:06:06.153Z,57.70
2018-06-15T08:08:34.653Z,59.70
2018-06-15T08:11:03.041Z,58.30
2018-06-15T08:13:32.556Z,53.90
2018-06-15T08:16:01.173Z,54.90
2018-06-15T08:18:29.549Z,55.50
2018-06-15T08:20:57.992Z,55.80
2018-06-15T08:23:26.439Z,54.60
2018-06-15T08:25:54.802Z,54.00
2018-06-15T08:28:24.576Z,51.80
2018-06-15T08:30:53.193Z,52.60
2018-06-15T08:33:21.613Z,53.00
2018-06-15T08:35:50.108Z,52.80
2018-06-15T08:38:19.567Z,52.30
2018-06-15T08:40:50.040Z,51.80
2018-06-15T08:43:18.827Z,51.90
2018-06-15T08:45:48.182Z,51.10
2018-06-15T08:48:16.591Z,50.40
2018-06-15T08:50:45.096Z,51.20
2018-06-15T08:53:13.680Z,50.30
2018-06-15T08:55:42.163Z,51.30
2018-06-15T08:58:10.624Z,51.70
2018-06-15T09:00:49.437Z,51.40
2018-06-15T09:03:17.907Z,51.10
2018-06-15T09:05:46.348Z,50.10
2018-06-15T09:08:14.789Z,49.80
2018-06-15T09:10:43.393Z,49.10
2018-06-15T09:13:11.848Z,47.70
2018-06-15T09:15:40.435Z,47.40
2018-06-15T09:18:09.967Z,47.00
2018-06-15T09:20:38.412Z,47.40
2018-06-15T09:23:10.457Z,47.70
2018-06-15T09:25:38.820Z,45.00
2018-06-15T09:28:07.536Z,46.10
2018-06-15T09:30:36.265Z,46.90
2018-06-15T09:33:12.456Z,46.10
2018-06-15T09:35:40.975Z,43.60
2018-06-15T09:38:09.508Z,42.70
2018-06-15T09:40:37.862Z,42.00
2018-06-15T09:43:06.692Z,41.70
2018-06-15T09:45:35.368Z,41.20
2018-06-15T09:48:03.972Z,42.40
2018-06-15T09:50:32.509Z,44.90
2018-06-15T09:53:00.906Z,46.50
2018-06-15T09:57:57.205Z,46.20
2018-06-15T10:00:31.947Z,46.50
2018-06-15T10:03:00.354Z,46.00
2018-06-15T10:05:28.704Z,45.70
2018-06-15T10:08:00.900Z,44.90
2018-06-15T10:10:29.301Z,42.90
2018-06-15T10:13:00.844Z,43.40
2018-06-15T10:15:29.208Z,43.80
2018-06-15T10:17:57.592Z,42.20
2018-06-15T10:20:26.124Z,42.90
2018-06-15T10:22:55.591Z,43.80
2018-06-15T10:25:24.097Z,44.00
2018-06-15T10:27:52.592Z,44.70
2018-06-15T10:30:23.800Z,44.90
2018-06-15T10:32:52.358Z,44.00
2018-06-15T10:35:21.033Z,43.20
2018-06-15T10:37:49.473Z,42.90
2018-06-15T10:40:18.968Z,43.00
2018-06-15T10:42:47.465Z,43.40
2018-06-15T10:45:15.968Z,42.60
2018-06-15T10:50:12.568Z,43.30
2018-06-15T10:52:40.996Z,43.10
2018-06-15T10:55:09.444Z,42.50
2018-06-15T10:57:37.900Z,40.80
2018-06-15T11:00:08.529Z,42.20
2018-06-15T11:02:38.821Z,41.00
2018-06-15T11:05:07.564Z,41.20
2018-06-15T11:07:36.032Z,41.00
2018-06-15T11:10:04.511Z,41.30
2018-06-15T11:12:33.844Z,40.70
2018-06-15T11:15:02.713Z,40.20
2018-06-15T11:17:33.447Z,39.90
2018-06-15T11:20:01.851Z,40.50
2018-06-15T11:22:34.836Z,40.60
2018-06-15T11:25:03.185Z,41.00
2018-06-15T11:27:31.580Z,40.90
2018-06-15T11:30:00.402Z,40.20
2018-06-15T11:32:28.770Z,39.90
2018-06-15T11:34:57.127Z,40.20
2018-06-15T11:37:27.009Z,40.20
2018-06-15T11:39:55.476Z,39.60
2018-06-15T11:42:23.916Z,40.50
2018-06-15T11:44:52.338Z,40.10
2018-06-15T11:47:20.575Z,39.60
2018-06-15T11:49:49.942Z,40.50
2018-06-15T11:52:18.711Z,41.40
2018-06-15T11:54:46.994Z,41.50
2018-06-15T11:57:15.256Z,41.50
2018-06-15T11:59:43.503Z,42.00
2018-06-15T12:02:11.836Z,42.10
2018-06-15T12:04:40.336Z,42.00
2018-06-15T12:07:08.743Z,41.70
2018-06-15T12:09:37.264Z,38.40
2018-06-15T12:12:05.749Z,39.40
2018-06-15T12:14:34.493Z,39.20
2018-06-15T12:17:02.950Z,40.00
2018-06-15T12:19:31.347Z,40.40
2018-06-15T12:21:59.728Z,38.70
2018-06-15T12:24:28.111Z,38.60
2018-06-15T12:26:56.508Z,38.10
2018-06-15T12:29:25.000Z,38.40
2018-06-15T12:31:53.460Z,39.40
2018-06-15T12:34:21.986Z,40.40
2018-06-15T12:36:50.464Z,39.00
2018-06-15T12:39:18.868Z,39.10
2018-06-15T12:41:47.340Z,40.20
2018-06-15T12:44:15.712Z,40.40
2018-06-15T12:46:44.577Z,38.70
2018-06-15T12:49:13.000Z,39.70
2018-06-15T12:51:41.368Z,38.20
2018-06-15T12:54:09.796Z,40.00
2018-06-15T12:56:38.168Z,38.30
2018-06-15T12:59:06.589Z,38.60
2018-06-15T13:01:34.960Z,38.80
2018-06-15T13:04:03.316Z,39.20
2018-06-15T13:06:31.842Z,38.20
2018-06-15T13:09:00.272Z,38.00
2018-06-15T13:11:28.632Z,39.50
2018-06-15T13:13:57.100Z,39.50
2018-06-15T13:16:25.560Z,38.60
2018-06-15T13:18:54.104Z,38.80
2018-06-15T13:21:22.516Z,39.00
2018-06-15T13:23:51.017Z,39.50
2018-06-15T13:26:19.428Z,40.10
2018-06-15T13:28:48.921Z,39.80
2018-06-15T13:31:17.532Z,40.10
2018-06-15T13:33:48.036Z,38.90
2018-06-15T13:36:16.589Z,39.40
2018-06-15T13:38:46.086Z,39.30
2018-06-15T13:41:14.512Z,39.20
2018-06-15T13:43:42.996Z,38.60
2018-06-15T13:46:11.397Z,40.20
2018-06-15T13:48:39.848Z,40.00
2018-06-15T13:51:08.291Z,40.70
2018-06-15T13:53:36.615Z,38.30
2018-06-15T13:56:05.415Z,38.40
2018-06-15T13:58:33.804Z,37.70
2018-06-15T14:01:02.376Z,39.10
2018-06-15T14:03:30.836Z,38.80
2018-06-15T14:05:59.362Z,39.10
2018-06-15T14:08:30.212Z,38.50
2018-06-15T14:10:58.612Z,39.00
2018-06-15T14:13:27.076Z,38.40
2018-06-15T14:15:56.584Z,38.50
2018-06-15T14:18:24.949Z,38.00
2018-06-15T14:20:53.465Z,38.60
2018-06-15T14:23:21.887Z,37.80
2018-06-15T14:25:50.289Z,38.90
2018-06-15T14:28:18.652Z,38.50
2018-06-15T14:30:47.074Z,39.10
2018-06-15T14:33:15.432Z,39.50
2018-06-15T14:35:43.841Z,38.80
2018-06-15T14:38:14.320Z,38.80
2018-06-15T14:40:42.708Z,38.70
2018-06-15T14:43:11.185Z,38.90
2018-06-15T14:45:39.610Z,38.90
2018-06-15T14:48:11.580Z,38.80
2018-06-15T14:50:39.984Z,38.70
2018-06-15T14:53:08.441Z,38.80
2018-06-15T14:55:37.096Z,38.60
2018-06-15T14:58:05.719Z,37.90
2018-06-15T15:00:34.296Z,39.80
2018-06-15T15:03:02.820Z,39.80
2018-06-15T15:05:31.265Z,39.60
2018-06-15T15:08:00.089Z,38.80
2018-06-15T15:10:29.488Z,38.90
2018-06-15T15:12:57.897Z,37.20
2018-06-15T15:15:26.896Z,36.80
2018-06-15T15:17:55.441Z,38.90
2018-06-15T15:20:23.984Z,39.10
2018-06-15T15:22:55.237Z,38.60
2018-06-15T15:25:23.768Z,39.00
2018-06-15T15:27:58.612Z,39.30
2018-06-15T15:30:27.018Z,39.00
2018-06-15T15:32:55.457Z,38.20
2018-06-15T15:35:24.016Z,38.70
2018-06-15T15:37:52.514Z,40.20
2018-06-15T15:40:21.008Z,39.50
2018-06-15T15:42:50.517Z,39.20
2018-06-15T15:45:19.129Z,40.40
2018-06-15T15:47:49.596Z,40.00
2018-06-15T15:50:17.968Z,39.90
2018-06-15T15:52:46.479Z,39.90
2018-06-15T15:55:14.972Z,40.30
2018-06-15T15:57:43.614Z,40.30
2018-06-15T16:00:12.042Z,40.70
2018-06-15T16:02:40.697Z,40.90
2018-06-15T16:05:09.147Z,41.40
2018-06-15T16:07:37.588Z,41.20
2018-06-15T16:12:33.964Z,41.10
2018-06-15T16:15:02.503Z,41.00
2018-06-15T16:17:30.875Z,40.70
2018-06-15T16:19:59.265Z,41.70
2018-06-15T16:22:27.717Z,41.90
2018-06-15T16:24:56.141Z,41.00
2018-06-15T16:27:24.515Z,41.40
2018-06-15T16:29:54.026Z,41.80
2018-06-15T16:32:22.572Z,41.80
2018-06-15T16:34:51.060Z,42.00
2018-06-15T16:37:19.496Z,42.30
2018-06-15T16:39:49.948Z,42.40
2018-06-15T16:42:18.332Z,42.40
2018-06-15T16:44:46.752Z,43.10
2018-06-15T16:47:15.181Z,42.40
2018-06-15T16:49:43.716Z,42.90
2018-06-15T16:52:12.116Z,43.10
2018-06-15T16:54:40.518Z,43.10
2018-06-15T16:57:11.100Z,43.20
2018-06-15T16:59:39.670Z,43.40
2018-06-15T17:02:08.135Z,43.80
2018-06-15T17:04:36.721Z,44.10
2018-06-15T17:07:05.141Z,43.70
2018-06-15T17:09:33.560Z,43.80
2018-06-15T17:12:02.192Z,44.30
2018-06-15T17:14:30.740Z,44.40
2018-06-15T17:16:59.224Z,44.20
2018-06-15T17:19:32.567Z,43.90
2018-06-15T17:22:00.955Z,44.80
2018-06-15T17:24:29.348Z,44.90
2018-06-15T17:26:57.812Z,44.80
2018-06-15T17:29:26.856Z,45.10
2018-06-15T17:31:58.701Z,44.90
2018-06-15T17:34:27.156Z,45.30
2018-06-15T17:36:55.689Z,45.20
2018-06-15T17:39:24.134Z,45.10
2018-06-15T17:41:52.716Z,45.10
2018-06-15T17:44:21.216Z,45.40
2018-06-15T17:46:49.726Z,45.60
2018-06-15T17:49:18.172Z,45.70
2018-06-15T17:51:47.772Z,45.80
2018-06-15T17:54:16.252Z,46.00
2018-06-15T17:56:44.816Z,46.30
2018-06-15T17:59:15.348Z,46.60
2018-06-15T18:04:12.077Z,46.60
2018-06-15T18:06:43.804Z,46.80
2018-06-15T18:09:12.247Z,46.60
2018-06-15T18:11:40.700Z,47.10
2018-06-15T18:14:10.033Z,47.30
2018-06-15T18:16:42.635Z,47.50
2018-06-15T18:19:12.144Z,47.40
2018-06-15T18:21:40.562Z,47.70
2018-06-15T18:24:13.124Z,47.70
2018-06-15T18:26:41.676Z,47.50
2018-06-15T18:29:13.356Z,48.10
2018-06-15T18:31:41.809Z,48.10
2018-06-15T18:34:10.295Z,48.00
2018-06-15T18:36:38.699Z,48.10
2018-06-15T18:41:47.559Z,48.60
2018-06-15T18:44:18.654Z,48.90
2018-06-15T18:46:47.473Z,49.00
2018-06-15T18:49:20.445Z,49.10
2018-06-15T18:51:49.344Z,49.20
2018-06-15T18:54:19.501Z,49.30
2018-06-15T18:56:48.854Z,49.60
2018-06-15T18:59:18.013Z,49.70
2018-06-15T19:01:49.361Z,49.90
2018-06-15T19:04:18.468Z,50.00
2018-06-15T19:06:47.730Z,49.90
2018-06-15T19:09:19.052Z,50.20
2018-06-15T19:11:50.224Z,50.30
2018-06-15T19:14:19.434Z,50.40
2018-06-15T19:16:53.509Z,50.50
2018-06-15T19:19:22.507Z,50.60
2018-06-15T19:21:53.668Z,50.60
2018-06-15T19:26:50.935Z,50.80
2018-06-15T19:29:19.734Z,50.90
2018-06-15T19:31:49.160Z,51.00
2018-06-15T19:34:18.580Z,51.10
2018-06-15T19:36:47.492Z,51.10
2018-06-15T19:39:16.775Z,51.00
2018-06-15T19:41:45.899Z,51.30
2018-06-15T19:44:14.840Z,51.40
2018-06-15T19:46:44.211Z,51.40
2018-06-15T19:49:13.127Z,51.50
2018-06-15T19:51:42.060Z,51.60
2018-06-15T19:54:16.311Z,51.60
2018-06-15T19:56:45.277Z,51.60
2018-06-15T19:59:18.309Z,51.60
2018-06-15T20:01:47.355Z,51.80
2018-06-15T20:04:16.415Z,51.90
2018-06-15T20:06:45.653Z,52.00
2018-06-15T20:09:14.967Z,52.20
2018-06-15T20:11:43.899Z,52.30
2018-06-15T20:14:18.739Z,52.30
2018-06-15T20:16:47.472Z,52.40
2018-06-15T20:19:16.467Z,52.50
2018-06-15T20:21:49.293Z,52.50
2018-06-15T20:24:18.156Z,52.80
2018-06-15T20:26:47.237Z,52.80
2018-06-15T20:29:16.256Z,52.80
2018-06-15T20:31:45.281Z,53.10
2018-06-15T20:34:14.298Z,53.10
2018-06-15T20:36:43.508Z,53.50
2018-06-15T20:39:12.594Z,53.50
2018-06-15T20:41:41.460Z,53.50
2018-06-15T20:44:10.311Z,53.60
2018-06-15T20:46:39.138Z,53.70
2018-06-15T20:49:08.234Z,53.70
2018-06-15T20:51:37.160Z,53.90
2018-06-15T20:54:06.186Z,54.10
2018-06-15T20:56:35.410Z,54.00
2018-06-15T20:59:04.455Z,54.10
2018-06-15T21:01:34.492Z,54.00
2018-06-15T21:04:03.792Z,54.60
2018-06-15T21:06:32.866Z,54.50
2018-06-15T21:09:01.705Z,54.70
2018-06-15T21:11:31.100Z,54.80
2018-06-15T21:14:06.363Z,54.70
2018-06-15T21:16:35.446Z,54.80
2018-06-15T21:19:04.472Z,55.00
2018-06-15T21:21:34.735Z,55.00
2018-06-15T21:24:03.766Z,55.20
2018-06-15T21:26:32.863Z,55.30
2018-06-15T21:29:02.354Z,55.40
2018-06-15T21:31:31.497Z,55.30
2018-06-15T21:34:00.393Z,55.60
2018-06-15T21:36:29.434Z,55.60
2018-06-15T21:38:58.753Z,55.80
2018-06-15T21:41:28.039Z,56.10
2018-06-15T21:43:56.853Z,55.90
2018-06-15T21:46:25.823Z,56.00
2018-06-15T21:48:55.050Z,56.30
2018-06-15T21:51:24.114Z,56.40
2018-06-15T21:53:53.078Z,56.30
2018-06-15T21:56:22.233Z,56.20
2018-06-15T21:58:52.173Z,56.30
2018-06-15T22:01:24.165Z,56.40
2018-06-15T22:06:21.508Z,56.70
2018-06-15T22:08:50.746Z,56.60
2018-06-15T22:11:19.730Z,56.80
2018-06-15T22:13:50.876Z,57.00
2018-06-15T22:16:20.052Z,57.10
2018-06-15T22:18:49.039Z,57.20
2018-06-15T22:21:18.041Z,57.30
2018-06-15T22:24:06.722Z,57.40
2018-06-15T22:26:37.441Z,57.70
2018-06-15T22:29:06.588Z,57.70
2018-06-15T22:31:35.382Z,57.80
2018-06-15T22:34:04.222Z,57.80
2018-06-15T22:36:33.244Z,58.00
2018-06-15T22:39:02.175Z,57.90
2018-06-15T22:41:31.284Z,58.20
2018-06-15T22:44:00.435Z,58.00
2018-06-15T22:46:29.734Z,58.40
2018-06-15T22:48:58.830Z,58.40
2018-06-15T22:51:27.868Z,58.40
2018-06-15T22:53:56.943Z,58.30
2018-06-15T22:56:26.020Z,58.50
2018-06-15T22:58:54.851Z,58.60
2018-06-15T23:01:24.070Z,58.60
2018-06-15T23:08:49.288Z,59.10
2018-06-15T23:11:18.264Z,59.30
2018-06-15T23:13:47.028Z,59.10
2018-06-15T23:16:15.947Z,59.30
2018-06-15T23:18:45.046Z,59.20
2018-06-15T23:21:13.927Z,59.40
2018-06-15T23:23:43.000Z,59.40
2018-06-15T23:26:12.217Z,59.20
2018-06-15T23:28:41.391Z,59.50
2018-06-15T23:31:10.220Z,59.60
2018-06-15T23:33:39.081Z,59.80
2018-06-15T23:36:08.211Z,59.60
2018-06-15T23:38:37.174Z,59.70
2018-06-15T23:41:06.495Z,59.70
2018-06-15T23:43:35.436Z,59.90
2018-06-15T23:46:04.380Z,60.10
2018-06-15T23:48:33.354Z,60.00
2018-06-15T23:51:04.902Z,60.20
2018-06-15T23:53:33.860Z,60.20
2018-06-15T23:56:02.720Z,60.10
2018-06-15T23:58:32.082Z,60.30
